Time;durP1;ratioP1;P1;durP2;ratioP2;P2;SDS_P1;SDS_P2;PMS_P1;PMS_P2;Temp;Humidity;BMP_temperature;BMP_pressure;BME280_temperature;BME280_humidity;BME280_pressure;Samples;Min_cycle;Max_cycle;Signal;HPM_P1;HPM_P2
2022/07/07 00:00:02;;;;;;;;;0.50;0.50;;;;;22.87;47.17;102154.50;5036067;28;45360;-83
2022/07/07 00:02:27;;;;;;;;;1.00;1.00;;;;;23.02;47.50;102177.88;5036557;28;45267;-83
2022/07/07 00:04:53;;;;;;;;;0.00;0.00;;;;;23.00;47.50;102179.84;5036597;28;45562;-83
2022/07/07 00:07:19;;;;;;;;;2.00;0.00;;;;;22.63;47.50;102119.97;5035752;28;46035;-83
2022/07/07 00:09:47;;;;;;;;;1.00;1.00;;;;;22.80;47.34;102154.06;5036022;28;45392;-83
2022/07/07 00:12:13;;;;;;;;;0.75;0.75;;;;;22.76;47.82;102152.59;5036226;28;45389;-82
2022/07/07 00:14:38;;;;;;;;;0.50;0.50;;;;;22.77;48.04;102157.88;5036733;28;45431;-82
2022/07/07 00:17:04;;;;;;;;;0.50;0.00;;;;;22.85;48.12;102173.66;5036079;28;46368;-83
2022/07/07 00:19:29;;;;;;;;;1.00;1.00;;;;;22.89;48.16;102182.44;5018478;28;45382;-83
2022/07/07 00:21:55;;;;;;;;;0.00;0.00;;;;;22.61;47.52;102131.94;5036033;28;45356;-83
2022/07/07 00:24:20;;;;;;;;;1.00;1.00;;;;;22.22;48.15;102069.50;5036458;28;45459;-83
2022/07/07 00:26:46;;;;;;;;;0.00;0.00;;;;;22.62;48.39;102156.31;5036110;28;46808;-83
2022/07/07 00:29:11;;;;;;;;;0.33;0.00;;;;;22.63;48.48;102159.88;5036043;28;45402;-83
2022/07/07 00:31:36;;;;;;;;;0.00;0.00;;;;;22.44;47.85;102128.59;5035998;28;45459;-83
2022/07/07 00:34:03;;;;;;;;;1.00;1.00;;;;;22.68;48.04;102164.00;5036321;28;45497;-82
2022/07/07 00:36:28;;;;;;;;;1.00;1.00;;;;;22.72;47.95;102168.22;5035727;28;46317;-82
2022/07/07 00:38:54;;;;;;;;;1.00;1.00;;;;;22.70;48.32;102167.47;5035974;28;45396;-83
2022/07/07 00:41:19;;;;;;;;;0.25;0.25;;;;;22.57;48.60;102135.84;5035945;28;45452;-83
2022/07/07 00:43:44;;;;;;;;;0.25;0.25;;;;;22.70;48.32;102155.72;5036458;28;45338;-83
2022/07/07 00:46:11;;;;;;;;;1.00;1.00;;;;;22.37;48.14;102100.13;5035566;28;46124;-83
2022/07/07 00:48:38;;;;;;;;;0.00;0.00;;;;;22.65;48.26;102147.91;5035829;28;45292;-83
2022/07/07 00:51:05;;;;;;;;;0.00;0.00;;;;;22.06;48.38;102047.13;5035430;28;45505;-83
2022/07/07 00:53:31;;;;;;;;;1.00;1.00;;;;;22.29;48.36;102088.97;5018213;28;45465;-83
2022/07/07 00:55:56;;;;;;;;;0.75;0.75;;;;;22.29;48.48;102086.25;5035398;28;47301;-83
2022/07/07 00:58:22;;;;;;;;;1.00;1.00;;;;;22.61;48.86;102140.94;5035817;28;45282;-83
2022/07/07 01:00:48;;;;;;;;;0.50;0.50;;;;;22.33;48.86;102095.88;5039050;28;45400;-83
2022/07/07 01:03:15;;;;;;;;;0.75;0.25;;;;;22.56;48.61;102137.72;5038779;28;45375;-83
2022/07/07 01:05:40;;;;;;;;;0.75;0.75;;;;;22.50;48.89;102119.13;5018676;28;46252;-82
2022/07/07 01:08:08;;;;;;;;;1.00;1.00;;;;;22.48;48.72;102121.09;5001085;28;45496;-83
2022/07/07 01:10:34;;;;;;;;;2.00;1.00;;;;;22.36;49.52;102097.50;5019195;28;45373;-83
2022/07/07 01:13:04;;;;;;;;;0.00;0.00;;;;;21.92;49.44;102026.38;5019130;28;45385;-83
2022/07/07 01:15:29;;;;;;;;;1.00;1.00;;;;;22.14;49.24;102063.72;5018875;28;47255;-83
2022/07/07 01:17:55;;;;;;;;;0.00;0.00;;;;;22.47;48.94;102122.94;5018869;28;45597;-83
2022/07/07 01:20:21;;;;;;;;;0.33;0.00;;;;;22.46;49.24;102120.34;5018241;28;45320;-83
2022/07/07 01:22:51;;;;;;;;;1.67;1.67;;;;;22.37;48.97;102112.84;5037856;28;45336;-83
2022/07/07 01:25:16;;;;;;;;;0.00;0.00;;;;;22.42;49.58;102135.13;5020423;28;48015;-83
2022/07/07 01:27:42;;;;;;;;;1.33;1.33;;;;;22.40;49.41;102129.78;5038615;28;45364;-82
2022/07/07 01:30:08;;;;;;;;;1.00;0.00;;;;;22.32;49.69;102113.19;5038560;28;45338;-82
2022/07/07 01:32:33;;;;;;;;;2.00;2.00;;;;;22.10;49.82;102078.47;5039025;28;45603;-82
2022/07/07 01:34:59;;;;;;;;;3.00;1.00;;;;;22.10;49.54;102084.81;5038011;28;47385;-82
2022/07/07 01:37:27;;;;;;;;;1.00;1.00;;;;;21.95;50.06;102061.44;5038414;28;45752;-82
2022/07/07 01:39:53;;;;;;;;;1.00;1.00;;;;;22.14;50.04;102101.75;5038626;28;45412;-82
2022/07/07 01:42:19;;;;;;;;;1.00;1.00;;;;;22.01;50.37;102084.56;5038900;28;45448;-83
2022/07/07 01:44:44;;;;;;;;;2.33;1.33;;;;;21.84;50.45;102054.06;5038253;28;46139;-82
2022/07/07 01:47:12;;;;;;;;;1.00;1.00;;;;;21.96;50.15;102087.63;5038150;28;45364;-82
2022/07/07 01:49:38;;;;;;;;;0.33;0.33;;;;;22.10;50.25;102111.06;5038166;28;45402;-83
2022/07/07 01:52:04;;;;;;;;;1.33;1.33;;;;;22.12;50.12;102110.00;5038517;28;45404;-82
2022/07/07 01:54:31;;;;;;;;;2.00;1.00;;;;;22.01;50.17;102098.16;5038419;28;46696;-83
2022/07/07 01:56:57;;;;;;;;;2.00;2.00;;;;;22.07;50.48;102109.44;5020177;28;45456;-83
2022/07/07 01:59:22;;;;;;;;;2.00;2.00;;;;;21.26;50.37;101969.44;5038222;28;45487;-82
2022/07/07 02:01:48;;;;;;;;;1.00;1.00;;;;;22.01;51.05;102104.47;5038480;28;45330;-83
2022/07/07 02:04:13;;;;;;;;;1.00;1.00;;;;;21.81;51.12;102065.13;5035827;28;47449;-82
2022/07/07 02:06:39;;;;;;;;;1.67;1.67;;;;;21.96;50.69;102090.34;5038088;28;45285;-82
2022/07/07 02:09:05;;;;;;;;;4.00;2.33;;;;;21.68;50.50;102047.97;5038166;28;45340;-82
2022/07/07 02:11:31;;;;;;;;;1.00;1.00;;;;;21.82;51.14;102077.75;5037052;28;45432;-82
2022/07/07 02:13:56;;;;;;;;;1.00;1.00;;;;;21.81;51.24;102084.13;5019815;28;47151;-82
2022/07/07 02:16:23;;;;;;;;;1.00;1.00;;;;;21.79;51.30;102069.78;5037772;28;46393;-81
2022/07/07 02:18:53;;;;;;;;;1.00;1.00;;;;;21.83;51.02;102089.47;5037710;28;45558;-82
2022/07/07 02:21:20;;;;;;;;;1.67;1.67;;;;;21.80;51.47;102090.56;5036698;28;45330;-81
2022/07/07 02:23:47;;;;;;;;;1.00;1.00;;;;;21.56;51.00;102059.69;5037606;28;47073;-82
2022/07/07 02:26:13;;;;;;;;;3.00;1.00;;;;;21.76;50.94;102096.31;5037499;28;45519;-82
2022/07/07 02:28:39;;;;;;;;;1.33;1.33;;;;;21.75;51.00;102095.44;5037945;28;45387;-83
2022/07/07 02:31:05;;;;;;;;;1.00;1.00;;;;;21.36;51.81;102033.91;5037859;28;45502;-82
2022/07/07 02:33:31;;;;;;;;;1.00;1.00;;;;;21.73;51.89;102099.22;5037159;28;46530;-82
2022/07/07 02:35:57;;;;;;;;;1.00;1.00;;;;;21.51;51.55;102054.56;5037443;28;45832;-83
2022/07/07 02:38:23;;;;;;;;;1.50;1.50;;;;;21.33;51.49;102029.56;5037834;28;45357;-83
2022/07/07 02:40:50;;;;;;;;;3.00;2.00;;;;;21.71;51.91;102099.34;5037847;28;45353;-83
2022/07/07 02:43:15;;;;;;;;;1.67;1.67;;;;;21.45;51.31;102053.16;5036984;28;46523;-82
2022/07/07 02:45:41;;;;;;;;;2.00;2.00;;;;;21.66;51.87;102096.94;5037465;28;45316;-82
2022/07/07 02:48:08;;;;;;;;;1.50;1.50;;;;;21.52;51.88;102086.16;5036944;28;45390;-83
2022/07/07 02:50:34;;;;;;;;;1.67;1.67;;;;;21.43;51.54;102067.81;5037491;28;45915;-82
2022/07/07 02:52:59;;;;;;;;;1.00;1.00;;;;;21.60;51.50;102094.63;5036942;28;45928;-83
2022/07/07 02:55:24;;;;;;;;;1.00;1.00;;;;;21.47;51.81;102075.63;5037220;28;45467;-82
2022/07/07 02:57:51;;;;;;;;;0.50;0.50;;;;;21.57;51.80;102104.84;5037458;28;45410;-82
2022/07/07 03:00:17;;;;;;;;;2.00;2.00;;;;;21.14;52.38;102035.38;5037529;28;45400;-82
2022/07/07 03:02:43;;;;;;;;;1.00;1.00;;;;;21.12;51.81;102036.44;5036809;28;45589;-83
2022/07/07 03:05:08;;;;;;;;;1.00;1.00;;;;;21.48;52.08;102101.78;5036843;28;45373;-82
2022/07/07 03:07:34;;;;;;;;;2.00;1.00;;;;;21.35;52.34;102059.28;5037246;28;45422;-82
2022/07/07 03:09:59;;;;;;;;;1.67;1.33;;;;;21.31;52.00;102064.06;5037238;28;45341;-82
2022/07/07 03:12:24;;;;;;;;;3.50;1.00;;;;;21.51;51.88;102089.84;5037034;28;46133;-82
2022/07/07 03:14:50;;;;;;;;;1.00;1.00;;;;;21.36;52.00;102063.75;5037031;28;45416;-82
2022/07/07 03:17:15;;;;;;;;;1.00;1.00;;;;;21.50;52.39;102086.25;5036585;28;45388;-83
2022/07/07 03:19:40;;;;;;;;;1.50;1.00;;;;;21.47;52.56;102091.03;5037202;28;45394;-82
2022/07/07 03:22:06;;;;;;;;;1.00;1.00;;;;;21.47;52.75;102096.47;5018037;28;56734;-82
2022/07/07 03:24:31;;;;;;;;;2.00;2.00;;;;;21.16;52.29;102037.97;5036787;28;45304;-82
2022/07/07 03:26:58;;;;;;;;;2.33;2.33;;;;;21.39;52.52;102080.66;5036735;28;45583;-82
2022/07/07 03:29:24;;;;;;;;;1.00;1.00;;;;;21.06;52.53;102021.47;5037315;28;45563;-82
2022/07/07 03:31:50;;;;;;;;;1.00;1.00;;;;;21.35;53.16;102080.97;5036284;28;46941;-82
2022/07/07 03:34:15;;;;;;;;;4.00;1.00;;;;;21.23;52.67;102058.28;5036025;28;45507;-83
2022/07/07 03:36:40;;;;;;;;;4.00;2.00;;;;;21.31;52.75;102079.47;5036643;28;45471;-82
2022/07/07 03:39:06;;;;;;;;;3.00;1.67;;;;;21.32;53.27;102084.75;5018879;28;45579;-82
2022/07/07 03:41:31;;;;;;;;;2.00;2.00;;;;;20.94;53.18;102023.16;5024871;28;46935;-82
2022/07/07 03:43:57;;;;;;;;;1.33;1.33;;;;;21.25;52.74;102076.16;5016198;28;45459;-83
2022/07/07 03:46:22;;;;;;;;;1.00;1.00;;;;;21.26;53.04;102075.22;5018654;28;45457;-82
2022/07/07 03:48:47;;;;;;;;;1.00;1.00;;;;;20.99;53.21;102029.13;5036820;28;45398;-83
2022/07/07 03:51:13;;;;;;;;;2.75;1.50;;;;;21.02;53.15;102037.06;5036258;28;46305;-83
2022/07/07 03:53:38;;;;;;;;;2.00;2.00;;;;;21.24;53.30;102071.75;5025107;28;45314;-82
2022/07/07 03:56:04;;;;;;;;;2.67;2.67;;;;;21.24;53.18;102069.03;5016375;28;45453;-82
2022/07/07 03:58:29;;;;;;;;;1.00;1.00;;;;;21.23;53.75;102072.69;5016924;28;45397;-83
2022/07/07 04:00:54;;;;;;;;;2.00;2.00;;;;;21.23;53.65;102072.69;5015627;28;46102;-83
2022/07/07 04:03:20;;;;;;;;;2.00;1.33;;;;;20.89;53.90;102013.59;5016275;28;45247;-82
2022/07/07 04:05:45;;;;;;;;;5.00;2.00;;;;;21.18;53.86;102071.28;5016323;28;45323;-83
2022/07/07 04:08:10;;;;;;;;;2.00;2.00;;;;;21.08;53.66;102055.63;5016698;28;45527;-83
2022/07/07 04:10:36;;;;;;;;;2.00;2.00;;;;;20.91;54.07;102036.94;5016132;28;47271;-82
2022/07/07 04:13:01;;;;;;;;;2.00;2.00;;;;;20.55;54.05;101975.16;5016044;28;45321;-82
2022/07/07 04:15:26;;;;;;;;;2.67;2.67;;;;;20.87;54.30;102038.09;5019943;28;45421;-82
2022/07/07 04:17:52;;;;;;;;;2.00;2.00;;;;;21.11;54.40;102075.38;5036618;28;45489;-82
2022/07/07 04:22:52;;;;;;;;;2.00;2.00;;;;;20.64;54.38;102007.09;4691904;26;45563;-83
2022/07/07 04:25:18;;;;;;;;;3.00;3.00;;;;;20.90;54.57;102050.56;5056370;28;45748;-82
2022/07/07 04:27:44;;;;;;;;;3.00;2.00;;;;;20.79;54.48;102026.88;5056370;28;45531;-82
2022/07/07 04:30:10;;;;;;;;;1.00;1.00;;;;;20.96;54.93;102061.00;5055890;28;46505;-82
2022/07/07 04:32:36;;;;;;;;;1.00;1.00;;;;;21.00;54.97;102066.13;5056284;28;45340;-82
2022/07/07 04:35:02;;;;;;;;;3.00;2.00;;;;;21.04;55.29;102074.91;5042666;28;45325;-82
2022/07/07 04:37:27;;;;;;;;;2.33;2.33;;;;;20.65;55.05;102014.28;5022137;28;45419;-82
2022/07/07 04:39:53;;;;;;;;;2.00;2.00;;;;;21.02;55.13;102076.84;5037445;28;45447;-82
2022/07/07 04:42:18;;;;;;;;;2.33;2.00;;;;;20.83;55.25;102047.38;5040190;28;45484;-82
2022/07/07 04:44:43;;;;;;;;;1.33;1.33;;;;;21.04;55.04;102088.47;5038246;28;45487;-82
2022/07/07 04:47:09;;;;;;;;;1.67;1.33;;;;;20.72;54.85;102039.09;5030095;28;45473;-84
2022/07/07 04:49:34;;;;;;;;;1.67;1.67;;;;;21.11;55.02;102102.47;5052776;28;47047;-83
2022/07/07 04:51:59;;;;;;;;;7.00;7.00;;;;;20.39;54.84;101981.59;5042792;28;45469;-84
2022/07/07 04:54:25;;;;;;;;;10.67;7.67;;;;;20.95;55.08;102080.94;5038816;28;45522;-83
2022/07/07 04:56:50;;;;;;;;;2.00;2.00;;;;;20.64;55.13;102024.22;5049916;28;45647;-83
2022/07/07 05:02:04;;;;;;;;;2.33;1.00;;;;;20.97;54.94;102069.03;5406470;22;46252;-84
2022/07/07 05:04:30;;;;;;;;;2.33;2.33;;;;;21.28;55.45;102113.94;5037683;28;45533;-83
2022/07/07 05:06:55;;;;;;;;;3.00;2.33;;;;;21.03;55.37;102055.06;5058359;28;45341;-84
2022/07/07 05:09:20;;;;;;;;;2.00;2.00;;;;;21.38;55.01;102116.06;5058087;28;47166;-84
2022/07/07 05:11:46;;;;;;;;;4.00;1.33;;;;;21.11;54.94;102057.25;5053299;28;47480;-85
2022/07/07 05:16:59;;;;;;;;;1.67;1.33;;;;;21.24;55.36;102081.72;5051932;28;45439;-86
2022/07/07 05:19:25;;;;;;;;;2.75;1.25;;;;;21.20;55.13;102058.50;5055666;28;45856;-86
2022/07/07 05:21:50;;;;;;;;;3.00;3.00;;;;;21.01;54.88;102018.19;5047000;28;45409;-84
2022/07/07 05:27:01;;;;;;;;;2.00;2.00;;;;;20.96;55.13;102006.81;5058037;28;45476;-85
2022/07/07 05:29:29;;;;;;;;;1.25;1.25;;;;;20.69;54.65;101960.72;5057553;28;46375;-86
2022/07/07 05:31:55;;;;;;;;;3.00;2.00;;;;;20.74;55.32;101966.72;5057744;28;45454;-86
2022/07/07 05:35:11;;;;;;;;;1.00;1.00;;;;;21.40;54.82;102071.59;5057895;28;45362;-86
2022/07/07 05:38:40;;;;;;;;;0.00;0.00;;;;;20.51;54.42;101928.47;4964392;28;45645;-87
2022/07/07 05:41:06;;;;;;;;;1.00;1.00;;;;;21.75;54.55;102117.16;4901128;28;46108;-86
2022/07/07 05:43:31;;;;;;;;;2.00;1.00;;;;;21.21;54.71;102034.00;4967856;28;45472;-87
2022/07/07 05:45:56;;;;;;;;;2.00;2.00;;;;;21.53;55.37;102079.75;4961029;28;45568;-87
2022/07/07 05:48:22;;;;;;;;;1.75;1.75;;;;;21.44;54.93;102061.41;4958737;28;45544;-87
2022/07/07 05:50:47;;;;;;;;;2.00;2.00;;;;;21.78;55.02;102111.50;4953984;28;47014;-87
2022/07/07 05:53:13;;;;;;;;;2.50;1.50;;;;;21.21;54.44;102019.53;4965106;28;45448;-87
2022/07/07 05:55:38;;;;;;;;;2.00;2.00;;;;;21.52;54.74;102053.63;4963218;28;45406;-87
2022/07/07 05:58:47;;;;;;;;;3.67;3.67;;;;;21.92;54.53;102116.84;4972039;28;45580;-87
2022/07/07 06:01:13;;;;;;;;;2.00;2.00;;;;;20.81;54.38;101925.56;4945438;28;46538;-87
2022/07/07 06:03:41;;;;;;;;;3.00;3.00;;;;;20.79;54.95;101927.50;4955588;28;45537;-87
2022/07/07 06:10:30;;;;;;;;;1.50;0.75;;;;;22.01;54.80;102141.59;4954149;28;45559;-86
2022/07/07 06:13:18;;;;;;;;;7.67;3.67;;;;;22.03;54.94;102143.25;4897988;28;45929;-86
2022/07/07 06:15:43;;;;;;;;;3.00;3.00;;;;;21.14;54.93;101988.41;4968789;28;45418;-87
2022/07/07 06:25:30;;;;;;;;;2.00;2.00;;;;;20.82;54.56;101948.97;4894566;29;45873;-86
2022/07/07 06:27:55;;;;;;;;;1.00;1.00;;;;;21.56;55.07;102081.38;4895130;29;45681;-86
2022/07/07 06:30:39;;;;;;;;;1.50;1.50;;;;;22.16;54.65;102167.69;4898137;29;45631;-87
2022/07/07 06:33:04;;;;;;;;;4.00;4.00;;;;;21.42;55.07;102045.25;4898809;28;45459;-86
2022/07/07 06:35:30;;;;;;;;;5.00;3.00;;;;;21.06;54.62;101978.09;4882130;29;47845;-86
2022/07/07 06:37:58;;;;;;;;;2.67;2.00;;;;;21.17;54.67;102004.47;4898214;29;45370;-87
2022/07/07 06:40:24;;;;;;;;;2.33;2.33;;;;;21.48;55.01;102044.81;4897504;29;45908;-86
2022/07/07 06:43:11;;;;;;;;;4.25;3.25;;;;;22.29;55.11;102178.59;4898113;29;45444;-87
2022/07/07 06:48:58;;;;;;;;;1.00;1.00;;;;;21.26;54.77;101968.59;4897354;29;45683;-87
2022/07/07 06:51:23;;;;;;;;;5.50;3.75;;;;;22.26;54.35;102133.47;4898151;29;45423;-86
2022/07/07 06:53:54;;;;;;;;;2.00;2.00;;;;;22.38;54.16;102139.03;4897953;29;45433;-86
2022/07/07 06:56:20;;;;;;;;;1.25;1.25;;;;;22.30;54.23;102129.56;4902149;28;45478;-85
2022/07/07 06:59:18;;;;;;;;;3.50;2.25;;;;;22.67;53.88;102175.00;4969553;28;45381;-86
2022/07/07 07:01:44;;;;;;;;;1.00;1.00;;;;;22.61;54.26;102149.09;5018992;28;45637;-85
2022/07/07 07:04:09;;;;;;;;;2.00;2.00;;;;;21.85;53.41;102012.38;5053817;28;45578;-86
2022/07/07 07:06:36;;;;;;;;;2.00;2.00;;;;;22.50;53.71;102101.00;5051249;28;48282;-85
2022/07/07 07:12:23;;;;;;;;;3.00;2.67;;;;;22.38;52.66;102049.38;5060444;28;45571;-87
2022/07/07 07:15:42;;;;;;;;;;;;;;;;;;;;;
2022/07/07 07:18:08;;;;;;;;;0.25;0.25;;;;;22.19;52.63;101979.19;4999413;28;74544;-87
2022/07/07 07:20:35;;;;;;;;;1.25;1.25;;;;;;;;5073163;28;45593;-86
2022/07/07 07:23:06;;;;;;;;;1.75;0.75;;;;;22.93;52.07;102089.66;5063482;28;45493;-86
2022/07/07 07:25:34;;;;;;;;;3.00;3.00;;;;;22.45;51.59;101989.06;5051327;28;45411;-86
2022/07/07 07:28:00;;;;;;;;;1.50;1.00;;;;;22.81;51.55;102049.81;5048445;28;47141;-86
2022/07/07 07:30:41;;;;;;;;;2.50;1.00;;;;;23.73;51.46;102188.91;5057896;28;45313;-87
2022/07/07 07:33:09;;;;;;;;;1.00;1.00;;;;;23.92;50.97;102215.63;5066418;28;45435;-86
2022/07/07 07:36:03;;;;;;;;;;;;;;;;;;;;;
2022/07/07 07:38:32;;;;;;;;;0.33;0.33;;;;;24.22;49.88;102215.09;5060180;28;74855;-86
2022/07/07 07:41:29;;;;;;;;;1.00;1.00;;;;;24.16;50.43;102219.19;5048944;28;45687;-86
2022/07/07 07:44:13;;;;;;;;;1.00;1.00;;;;;23.02;50.30;102024.72;5065817;28;45713;-86
2022/07/07 07:50:20;;;;;;;;;1.00;1.00;;;;;23.52;50.86;102124.22;5057915;28;45555;-86
2022/07/07 07:56:20;;;;;;;;;1.00;1.00;;;;;24.01;50.92;102231.25;4992208;28;45417;-85
2022/07/07 07:58:46;;;;;;;;;1.00;1.00;;;;;23.82;51.02;102195.53;4984996;28;45518;-84
2022/07/07 08:01:11;;;;;;;;;3.00;1.25;;;;;23.65;50.47;102153.22;4988016;28;47484;-84
2022/07/07 08:03:36;;;;;;;;;2.00;2.00;;;;;24.07;50.71;102210.84;4994356;28;53456;-83
2022/07/07 08:06:02;;;;;;;;;1.00;1.00;;;;;24.36;50.12;102222.19;4989272;28;45438;-81
2022/07/07 08:08:28;;;;;;;;;1.00;1.00;;;;;24.47;50.17;102215.91;4980647;28;45593;-82
2022/07/07 08:10:53;;;;;;;;;4.33;4.00;;;;;24.51;50.07;102181.97;5002501;28;46311;-84
2022/07/07 08:13:18;;;;;;;;;1.00;1.00;;;;;24.44;48.88;102162.47;5007271;28;45448;-84
2022/07/07 08:15:44;;;;;;;;;1.00;1.00;;;;;24.45;48.84;102158.78;5004291;28;45624;-91
2022/07/07 08:18:09;;;;;;;;;3.00;3.00;;;;;24.66;47.95;102205.28;5018346;28;45452;-90
2022/07/07 08:20:40;;;;;;;;;0.75;0.00;;;;;23.57;47.93;102024.03;5238692;22;45470;-86
2022/07/07 08:23:08;;;;;;;;;1.00;1.00;;;;;24.15;48.00;102127.53;5058961;28;45647;-91
2022/07/07 08:28:55;;;;;;;;;1.00;1.00;;;;;23.91;48.37;102059.53;5091394;22;45530;-86
2022/07/07 08:31:20;;;;;;;;;0.50;0.25;;;;;23.89;48.46;102038.84;5048782;28;46034;-83
2022/07/07 08:33:46;;;;;;;;;1.75;1.00;;;;;24.68;48.26;102142.44;5040418;28;45450;-84
2022/07/07 08:36:11;;;;;;;;;0.00;0.00;;;;;24.44;47.87;102087.03;5033324;28;45535;-87
2022/07/07 08:41:12;;;;;;;;;1.50;0.25;;;;;25.56;47.41;102187.94;5152213;22;45679;-83
2022/07/07 08:43:38;;;;;;;;;1.00;1.00;;;;;25.59;46.52;102195.84;5037619;28;45418;-83
2022/07/07 08:46:08;;;;;;;;;0.50;0.50;;;;;25.85;45.67;102202.72;5037810;28;45388;-81
2022/07/07 08:49:09;;;;;;;;;0.00;0.00;;;;;26.02;44.82;102209.50;5027096;28;45575;-81
2022/07/07 08:51:39;;;;;;;;;1.25;0.00;;;;;25.95;44.15;102218.34;5026293;28;48631;-81
2022/07/07 08:54:24;;;;;;;;;1.50;0.00;;;;;25.96;44.96;102214.59;5034377;28;45461;-81
2022/07/07 08:56:50;;;;;;;;;0.00;0.00;;;;;26.56;43.17;102176.63;5024159;28;45328;-81
2022/07/07 08:59:15;;;;;;;;;0.00;0.00;;;;;26.81;42.85;102210.81;5029651;28;45452;-81
2022/07/07 09:01:53;;;;;;;;;0.00;0.00;;;;;26.74;42.56;102199.59;5031243;28;46125;-82
2022/07/07 09:04:19;;;;;;;;;0.00;0.00;;;;;26.75;42.10;102206.78;5021182;28;45486;-84
2022/07/07 09:07:02;;;;;;;;;0.00;0.00;;;;;26.71;43.49;102213.53;5015594;28;45548;-87
2022/07/07 09:09:38;;;;;;;;;0.00;0.00;;;;;26.64;43.08;102209.59;5029663;28;45443;-88
2022/07/07 09:12:05;;;;;;;;;0.25;0.25;;;;;26.53;43.65;102213.28;5004214;28;47421;-84
2022/07/07 09:15:02;;;;;;;;;0.25;0.25;;;;;26.46;43.66;102215.69;5034677;28;45265;-87
2022/07/07 09:17:29;;;;;;;;;3.25;1.00;;;;;25.92;43.83;102145.72;5019147;28;45400;-86
2022/07/07 09:20:00;;;;;;;;;1.50;1.50;;;;;26.28;43.47;102220.03;5033777;28;45542;-85
2022/07/07 09:22:44;;;;;;;;;0.00;0.00;;;;;26.21;43.71;102222.41;5022494;28;45452;-84
2022/07/07 09:25:09;;;;;;;;;1.00;1.00;;;;;25.80;44.51;102154.91;5027386;28;45492;-84
2022/07/07 09:27:51;;;;;;;;;0.00;0.00;;;;;26.17;44.24;102229.16;5039396;28;45434;-83
2022/07/07 09:30:39;;;;;;;;;0.00;0.00;;;;;26.30;44.32;102220.75;5023536;28;45415;-87
2022/07/07 09:33:09;;;;;;;;;3.00;1.00;;;;;25.69;44.07;102114.91;5013891;28;47326;-85
2022/07/07 09:39:03;;;;;;;;;0.25;0.25;;;;;25.97;44.08;102189.03;5037731;22;45346;-89
2022/07/07 09:44:32;;;;;;;;;1.00;1.00;;;;;25.66;44.52;102194.34;5107340;22;45405;-86
2022/07/07 09:52:49;;;;;;;;;7.25;4.25;;;;;25.37;44.91;102219.50;5080712;22;45702;-84
2022/07/07 09:55:14;;;;;;;;;3.50;3.50;;;;;25.57;44.78;102279.78;5047861;28;46244;-86
2022/07/07 09:57:42;;;;;;;;;1.00;1.00;;;;;24.93;45.16;102195.84;5063636;22;45409;-85
2022/07/07 10:00:08;;;;;;;;;1.00;1.00;;;;;25.36;45.10;102290.63;5058057;28;45467;-84
2022/07/07 10:02:36;;;;;;;;;1.00;1.00;;;;;25.24;45.58;102292.50;5040953;28;45506;-80
2022/07/07 10:05:04;;;;;;;;;0.00;0.00;;;;;24.94;45.40;102255.75;5049686;28;46018;-82
2022/07/07 10:07:31;;;;;;;;;0.00;0.00;;;;;25.10;45.67;102299.03;5049432;28;45467;-82
2022/07/07 10:10:01;;;;;;;;;1.00;1.00;;;;;25.12;45.72;102313.41;5042890;28;45694;-83
2022/07/07 10:12:28;;;;;;;;;1.25;1.25;;;;;24.67;45.48;102236.16;5054832;28;45531;-82
2022/07/07 10:15:11;;;;;;;;;0.50;0.50;;;;;25.04;45.50;102300.38;5043519;28;46882;-83
2022/07/07 10:17:38;;;;;;;;;0.50;0.50;;;;;25.14;45.08;102311.41;5044833;28;45352;-83
2022/07/07 10:20:04;;;;;;;;;0.50;0.50;;;;;24.80;45.52;102256.00;5053424;28;45453;-82
2022/07/07 10:22:30;;;;;;;;;1.00;1.00;;;;;25.23;45.46;102315.31;5040515;28;45551;-82
2022/07/07 10:24:59;;;;;;;;;1.00;1.00;;;;;24.96;45.62;102281.06;5050256;28;47048;-83
2022/07/07 10:27:27;;;;;;;;;1.00;0.00;;;;;25.19;45.83;102320.16;5047996;28;45506;-82
2022/07/07 10:29:55;;;;;;;;;2.00;2.00;;;;;25.24;45.54;102322.53;5042867;28;45434;-82
2022/07/07 10:32:49;;;;;;;;;0.00;0.00;;;;;25.17;45.72;102302.13;5052201;28;45650;-82
2022/07/07 10:35:16;;;;;;;;;0.25;0.25;;;;;25.20;45.71;102296.47;5046207;28;45446;-82
2022/07/07 10:37:46;;;;;;;;;1.00;1.00;;;;;25.50;45.59;102325.84;5044018;28;45427;-82
2022/07/07 10:40:23;;;;;;;;;0.50;0.50;;;;;25.62;44.68;102323.97;5053232;28;45472;-82
2022/07/07 10:43:10;;;;;;;;;0.00;0.00;;;;;25.67;44.67;102319.84;5043005;28;45383;-82
2022/07/07 10:45:44;;;;;;;;;0.00;0.00;;;;;25.58;45.09;102317.00;5044068;28;45349;-82
2022/07/07 10:48:43;;;;;;;;;0.25;0.25;;;;;25.53;44.93;102311.94;5037039;28;45481;-84
2022/07/07 10:51:26;;;;;;;;;0.50;0.50;;;;;25.56;44.26;102325.31;5048360;28;45460;-82
2022/07/07 10:54:08;;;;;;;;;0.50;0.50;;;;;25.49;44.50;102327.69;5033547;28;45452;-82
2022/07/07 10:56:51;;;;;;;;;1.00;1.00;;;;;25.49;44.80;102335.88;5056482;28;45561;-85
2022/07/07 10:59:23;;;;;;;;;1.00;1.00;;;;;25.40;45.00;102325.75;5046453;28;45764;-82
2022/07/07 11:02:01;;;;;;;;;2.00;2.00;;;;;25.47;44.43;102337.00;5050959;28;45432;-84
2022/07/07 11:04:41;;;;;;;;;2.00;1.00;;;;;25.49;45.60;102338.59;5038793;28;45332;-84
2022/07/07 11:07:14;;;;;;;;;0.00;0.00;;;;;25.55;44.68;102296.28;5048345;28;45653;-84
2022/07/07 11:09:59;;;;;;;;;1.00;1.00;;;;;25.89;44.53;102337.19;5049342;28;45585;-84
2022/07/07 11:12:44;;;;;;;;;2.00;2.00;;;;;25.82;43.65;102336.81;5040055;28;45472;-85
2022/07/07 11:15:22;;;;;;;;;2.00;2.00;;;;;25.76;43.74;102340.06;5048098;28;45472;-83
2022/07/07 11:17:49;;;;;;;;;2.00;2.00;;;;;25.51;44.65;102316.66;5050416;28;45529;-84
2022/07/07 11:20:20;;;;;;;;;6.67;3.67;;;;;25.47;45.00;102329.69;5039426;28;45269;-84
2022/07/07 11:22:50;;;;;;;;;1.00;1.00;;;;;25.26;44.68;102296.84;5051065;28;45359;-84
2022/07/07 11:25:19;;;;;;;;;2.00;1.50;;;;;25.59;45.39;102351.50;5045913;28;45403;-81
2022/07/07 11:27:46;;;;;;;;;1.75;1.75;;;;;25.72;43.99;102345.91;5043091;28;45533;-82
2022/07/07 11:30:12;;;;;;;;;1.25;1.25;;;;;25.73;43.65;102340.34;5051713;28;45496;-81
2022/07/07 11:32:38;;;;;;;;;0.50;0.50;;;;;25.78;43.58;102359.94;5040008;28;45321;-82
2022/07/07 11:35:05;;;;;;;;;2.75;1.00;;;;;25.70;43.72;102356.97;5047399;28;45286;-81
2022/07/07 11:37:31;;;;;;;;;1.00;1.00;;;;;25.64;43.36;102362.94;5047536;28;47148;-85
2022/07/07 11:40:00;;;;;;;;;1.00;1.00;;;;;25.58;43.21;102364.28;5043228;28;45351;-85
2022/07/07 11:42:26;;;;;;;;;0.00;0.00;;;;;25.61;43.13;102355.84;5041448;28;45538;-84
2022/07/07 11:44:52;;;;;;;;;2.00;0.50;;;;;25.53;43.41;102331.03;5037413;28;45882;-85
2022/07/07 11:47:18;;;;;;;;;2.25;2.25;;;;;25.72;43.68;102360.44;5047698;28;45333;-89
2022/07/07 11:49:44;;;;;;;;;3.25;3.25;;;;;25.77;43.63;102363.66;5022826;28;45565;-90
2022/07/07 11:52:16;;;;;;;;;2.00;2.00;;;;;25.65;43.29;102331.91;5055101;28;45342;-87
2022/07/07 11:54:47;;;;;;;;;1.00;1.00;;;;;25.80;42.96;102370.72;5040915;28;45440;-85
2022/07/07 11:57:25;;;;;;;;;1.00;1.00;;;;;25.81;42.63;102373.34;5046356;28;46147;-85
2022/07/07 11:59:50;;;;;;;;;1.00;1.00;;;;;25.74;42.20;102355.72;5032144;28;45495;-86
2022/07/07 12:02:17;;;;;;;;;3.50;2.25;;;;;25.85;42.41;102380.28;5039180;28;45413;-86
2022/07/07 12:04:43;;;;;;;;;3.50;3.50;;;;;25.76;43.21;102366.53;5050969;28;45416;-83
2022/07/07 12:07:10;;;;;;;;;2.00;2.00;;;;;25.84;42.38;102383.13;5043976;28;46408;-85
2022/07/07 12:09:35;;;;;;;;;1.00;1.00;;;;;25.78;42.63;102361.78;5043637;28;45338;-85
2022/07/07 12:12:01;;;;;;;;;0.25;0.25;;;;;26.00;42.79;102380.91;5051020;28;45330;-85
2022/07/07 12:14:27;;;;;;;;;1.00;1.00;;;;;26.06;43.13;102380.41;5039447;28;45570;-85
2022/07/07 12:16:52;;;;;;;;;1.25;1.25;;;;;26.07;42.68;102378.53;5049418;28;45433;-84
2022/07/07 12:19:18;;;;;;;;;1.00;1.00;;;;;26.09;42.60;102379.25;5045116;28;45367;-84
2022/07/07 12:21:51;;;;;;;;;2.00;1.00;;;;;26.02;42.57;102375.31;5042701;28;45569;-85
2022/07/07 12:24:21;;;;;;;;;1.00;1.00;;;;;25.90;42.69;102372.59;5052396;28;45567;-85
2022/07/07 12:26:49;;;;;;;;;3.00;1.00;;;;;25.90;42.38;102388.13;5040356;28;46054;-86
2022/07/07 12:29:19;;;;;;;;;2.00;0.00;;;;;25.69;42.68;102372.47;5046268;28;45423;-85
2022/07/07 12:31:46;;;;;;;;;0.25;0.25;;;;;25.74;42.80;102395.81;5049191;28;45495;-85